createdAt,value
2023-01-20T00:01:09.617Z,12.50
2023-01-20T00:03:36.869Z,16.60
2023-01-20T00:06:04.023Z,14.95
2023-01-20T00:08:30.959Z,13.00
2023-01-20T00:10:57.917Z,14.68
2023-01-20T00:13:24.785Z,10.70
2023-01-20T00:15:51.605Z,19.33
2023-01-20T00:18:18.458Z,13.77
2023-01-20T00:20:45.221Z,17.40
2023-01-20T00:23:12.031Z,16.92
2023-01-20T00:25:38.888Z,15.82
2023-01-20T00:28:05.736Z,14.88
2023-01-20T00:30:32.623Z,20.27
2023-01-20T00:32:59.485Z,12.85
2023-01-20T00:35:26.290Z,15.25
2023-01-20T00:37:53.127Z,14.15
2023-01-20T00:40:20.120Z,14.30
2023-01-20T00:42:46.844Z,15.65
2023-01-20T00:45:14.058Z,21.40
2023-01-20T00:47:40.919Z,14.70
2023-01-20T00:50:08.155Z,11.95
2023-01-20T00:52:34.931Z,14.85
2023-01-20T00:55:01.709Z,19.55
2023-01-20T00:57:28.440Z,14.90
2023-01-20T00:59:55.192Z,13.52
2023-01-20T01:02:22.011Z,15.30
2023-01-20T01:04:51.677Z,16.80
2023-01-20T01:07:18.699Z,12.48
2023-01-20T01:09:45.523Z,18.75
2023-01-20T01:12:12.276Z,16.52
2023-01-20T01:14:39.140Z,14.70
2023-01-20T01:17:05.925Z,13.30
2023-01-20T01:19:32.717Z,14.30
2023-01-20T01:21:59.485Z,15.00
2023-01-20T01:24:26.275Z,18.45
2023-01-20T01:26:53.917Z,22.25
2023-01-20T01:29:20.963Z,16.95
2023-01-20T01:31:47.783Z,13.30
2023-01-20T01:34:15.399Z,20.13
2023-01-20T01:36:42.269Z,12.50
2023-01-20T01:39:09.030Z,15.27
2023-01-20T01:41:35.917Z,15.80
2023-01-20T01:44:12.371Z,18.95
2023-01-20T01:46:40.409Z,19.45
2023-01-20T01:49:12.564Z,20.00
2023-01-20T01:51:44.528Z,23.75
2023-01-20T01:54:20.837Z,19.05
2023-01-20T01:56:49.074Z,21.70
2023-01-20T01:59:17.416Z,19.33
2023-01-20T02:01:49.416Z,20.00
2023-01-20T02:04:21.942Z,18.40
2023-01-20T02:06:52.445Z,18.38
2023-01-20T02:09:20.102Z,20.52
2023-01-20T02:11:54.778Z,22.08
2023-01-20T02:14:33.399Z,19.50
2023-01-20T02:17:11.779Z,20.20
2023-01-20T02:20:06.128Z,22.33
2023-01-20T02:22:36.537Z,23.77
2023-01-20T02:25:18.172Z,20.10
2023-01-20T02:27:50.997Z,17.77
2023-01-20T02:30:59.082Z,23.20
2023-01-20T02:33:49.034Z,17.92
2023-01-20T02:36:21.959Z,18.13
2023-01-20T02:39:11.234Z,19.98
2023-01-20T02:41:49.633Z,19.42
2023-01-20T02:44:50.596Z,18.80
2023-01-20T02:47:39.742Z,18.52
2023-01-20T02:50:27.583Z,26.52
2023-01-20T02:52:59.286Z,22.85
2023-01-20T02:55:40.242Z,17.75
2023-01-20T02:59:11.529Z,20.02
2023-01-20T03:01:54.016Z,21.50
2023-01-20T03:04:27.538Z,21.63
2023-01-20T03:06:57.724Z,23.63
2023-01-20T03:09:30.729Z,18.77
2023-01-20T03:12:04.142Z,20.00
2023-01-20T03:14:31.392Z,23.88
2023-01-20T03:16:58.169Z,23.42
2023-01-20T03:19:25.109Z,20.45
2023-01-20T03:21:52.727Z,24.08
2023-01-20T03:24:20.487Z,21.60
2023-01-20T03:26:47.245Z,20.92
2023-01-20T03:29:16.120Z,19.80
2023-01-20T03:31:48.130Z,18.88
2023-01-20T03:34:19.743Z,20.27
2023-01-20T03:36:47.731Z,20.83
2023-01-20T03:39:14.976Z,20.55
2023-01-20T03:41:56.415Z,18.15
2023-01-20T03:44:29.049Z,22.25
2023-01-20T03:47:26.620Z,24.17
2023-01-20T03:50:07.078Z,20.65
2023-01-20T03:52:48.816Z,21.00
2023-01-20T03:55:15.851Z,25.67
2023-01-20T03:57:51.302Z,19.30
2023-01-20T04:00:21.649Z,21.98
2023-01-20T04:02:50.186Z,18.95
2023-01-20T04:05:17.441Z,20.63
2023-01-20T04:07:46.835Z,23.10
2023-01-20T04:10:16.126Z,21.48
2023-01-20T04:12:43.010Z,23.90
2023-01-20T04:15:11.221Z,22.17
2023-01-20T04:17:37.925Z,19.83
2023-01-20T04:20:12.333Z,20.58
2023-01-20T04:22:55.595Z,22.63
2023-01-20T04:25:28.834Z,19.77
2023-01-20T04:27:55.623Z,21.75
2023-01-20T04:30:22.538Z,20.85
2023-01-20T04:32:49.500Z,22.30
2023-01-20T04:35:19.506Z,21.05
2023-01-20T04:37:46.324Z,24.05
2023-01-20T04:40:13.529Z,20.55
2023-01-20T04:42:40.359Z,23.05
2023-01-20T04:45:07.530Z,17.27
2023-01-20T04:47:34.461Z,19.52
2023-01-20T04:50:01.199Z,19.85
2023-01-20T04:52:27.950Z,22.17
2023-01-20T04:54:54.751Z,25.00
2023-01-20T04:57:21.526Z,24.77
2023-01-20T04:59:48.345Z,20.00
2023-01-20T05:02:15.115Z,21.55
2023-01-20T05:04:42.015Z,18.88
2023-01-20T05:07:09.339Z,23.20
2023-01-20T05:09:36.224Z,18.27
2023-01-20T05:12:03.389Z,20.92
2023-01-20T05:14:30.448Z,21.52
2023-01-20T05:16:57.246Z,23.08
2023-01-20T05:19:24.139Z,24.58
2023-01-20T05:21:50.951Z,17.27
2023-01-20T05:24:17.753Z,22.92
2023-01-20T05:26:44.482Z,21.33
2023-01-20T05:29:11.523Z,20.58
2023-01-20T05:31:43.183Z,18.95
2023-01-20T05:34:11.090Z,21.77
2023-01-20T05:36:37.882Z,16.75
2023-01-20T05:39:04.724Z,19.63
2023-01-20T05:41:32.433Z,24.20
2023-01-20T05:43:59.189Z,18.15
2023-01-20T05:46:26.037Z,21.38
2023-01-20T05:48:52.804Z,20.00
2023-01-20T05:51:19.739Z,22.08
2023-01-20T05:53:46.425Z,17.50
2023-01-20T05:56:15.867Z,19.38
2023-01-20T05:58:42.962Z,17.52
2023-01-20T06:01:12.838Z,20.40
2023-01-20T06:03:40.139Z,19.90
2023-01-20T06:06:08.835Z,18.30
2023-01-20T06:08:36.031Z,23.10
2023-01-20T06:11:03.101Z,23.08
2023-01-20T06:13:30.007Z,21.83
2023-01-20T06:15:56.917Z,17.13
2023-01-20T06:18:24.962Z,20.77
2023-01-20T06:20:51.854Z,17.70
2023-01-20T06:23:19.034Z,18.95
2023-01-20T06:25:45.727Z,16.20
2023-01-20T06:28:12.607Z,18.15
2023-01-20T06:30:43.024Z,22.02
2023-01-20T06:33:10.859Z,25.40
2023-01-20T06:35:38.175Z,18.58
2023-01-20T06:38:05.225Z,20.10
2023-01-20T06:40:32.703Z,19.42
2023-01-20T06:42:59.665Z,18.00
2023-01-20T06:45:26.522Z,21.00
2023-01-20T06:47:53.301Z,18.13
2023-01-20T06:50:20.114Z,21.05
2023-01-20T06:52:46.824Z,16.90
2023-01-20T06:55:14.294Z,20.52
2023-01-20T06:57:41.228Z,21.00
2023-01-20T07:00:08.583Z,20.27
2023-01-20T07:02:35.430Z,21.20
2023-01-20T07:05:02.499Z,21.55
2023-01-20T07:07:32.182Z,17.42
2023-01-20T07:09:58.959Z,19.85
2023-01-20T07:12:25.708Z,16.13
2023-01-20T07:14:52.756Z,19.10
2023-01-20T07:17:19.655Z,17.60
2023-01-20T07:19:46.501Z,16.13
2023-01-20T07:22:13.378Z,18.77
2023-01-20T07:24:40.249Z,21.73
2023-01-20T07:27:07.131Z,19.30
2023-01-20T07:29:33.994Z,19.35
2023-01-20T07:32:00.999Z,20.95
2023-01-20T07:34:27.810Z,20.40
2023-01-20T07:40:31.078Z,22.13
2023-01-20T07:43:53.438Z,16.05
2023-01-20T07:47:15.999Z,24.90
2023-01-20T07:53:18.543Z,17.08
2023-01-20T08:00:16.880Z,21.90
2023-01-20T08:03:43.962Z,18.10
2023-01-20T08:10:27.871Z,17.33
2023-01-20T08:13:43.922Z,19.88
2023-01-20T08:23:19.053Z,17.10
2023-01-20T08:26:21.375Z,12.13
2023-01-20T08:29:43.507Z,19.83
2023-01-20T08:36:11.391Z,17.70
2023-01-20T08:53:16.554Z,18.70
2023-01-20T08:56:25.117Z,17.05
2023-01-20T09:14:12.245Z,18.85
2023-01-20T09:53:17.118Z,22.40
2023-01-20T09:55:56.197Z,23.98
2023-01-20T09:58:30.602Z,16.95
2023-01-20T10:01:12.586Z,23.30
2023-01-20T10:03:47.272Z,15.65
2023-01-20T10:06:24.860Z,15.57
2023-01-20T10:09:06.692Z,15.88
2023-01-20T10:11:43.317Z,15.65
2023-01-20T10:14:33.168Z,24.45
2023-01-20T10:17:33.400Z,16.52
2023-01-20T10:20:22.756Z,12.93
2023-01-20T10:22:55.988Z,15.60
2023-01-20T10:25:30.571Z,12.98
2023-01-20T10:28:11.460Z,14.20
2023-01-20T10:30:38.979Z,15.10
2023-01-20T10:33:12.115Z,12.85
2023-01-20T10:35:52.475Z,18.55
2023-01-20T10:38:43.330Z,15.60
2023-01-20T10:41:30.798Z,17.63
2023-01-20T10:43:59.358Z,20.85
2023-01-20T10:46:45.765Z,13.82
2023-01-20T10:49:25.632Z,16.05
2023-01-20T10:52:20.228Z,13.65
2023-01-20T10:54:57.836Z,14.75
2023-01-20T10:57:25.199Z,15.70
2023-01-20T10:59:55.890Z,15.07
2023-01-20T11:02:32.033Z,17.65
2023-01-20T11:05:09.792Z,15.20
2023-01-20T11:07:36.786Z,18.48
2023-01-20T11:10:19.586Z,17.05
2023-01-20T11:12:50.041Z,15.07
2023-01-20T11:15:19.948Z,15.95
2023-01-20T11:17:47.389Z,16.05
2023-01-20T11:20:20.900Z,18.98
2023-01-20T11:22:49.642Z,20.27
2023-01-20T11:25:27.584Z,14.98
2023-01-20T11:27:54.491Z,16.58
2023-01-20T11:30:27.049Z,15.77
2023-01-20T11:33:20.646Z,18.48
2023-01-20T11:36:06.442Z,19.08
2023-01-20T11:38:48.418Z,14.00
2023-01-20T11:41:33.199Z,15.95
2023-01-20T11:44:01.155Z,17.38
2023-01-20T11:46:30.770Z,22.10
2023-01-20T11:49:22.029Z,20.73
2023-01-20T11:51:54.168Z,21.65
2023-01-20T11:54:24.039Z,17.15
2023-01-20T11:57:05.003Z,16.50
2023-01-20T11:59:35.033Z,21.35
2023-01-20T12:02:24.539Z,20.13
2023-01-20T12:04:57.575Z,20.63
2023-01-20T12:07:45.565Z,16.55
2023-01-20T12:10:21.470Z,15.32
2023-01-20T12:13:12.894Z,15.93
2023-01-20T12:15:44.275Z,20.45
2023-01-20T12:18:25.977Z,21.27
2023-01-20T12:21:09.429Z,24.15
2023-01-20T12:23:55.310Z,16.58
2023-01-20T12:26:23.693Z,22.27
2023-01-20T12:29:36.727Z,17.50
2023-01-20T12:32:03.577Z,21.38
2023-01-20T12:34:31.354Z,19.98
2023-01-20T12:37:36.550Z,20.33
2023-01-20T12:40:09.557Z,17.77
2023-01-20T12:42:55.141Z,20.70
2023-01-20T12:45:52.163Z,22.58
2023-01-20T12:48:39.090Z,23.38
2023-01-20T12:51:26.116Z,18.80
2023-01-20T12:54:42.977Z,24.67
2023-01-20T12:57:21.240Z,23.63
2023-01-20T13:00:00.605Z,25.75
2023-01-20T13:02:45.811Z,25.55
2023-01-20T13:05:42.555Z,25.67
2023-01-20T13:08:32.181Z,32.90
2023-01-20T13:11:20.143Z,25.25
2023-01-20T13:14:13.845Z,28.25
2023-01-20T13:16:52.586Z,26.95
2023-01-20T13:19:40.063Z,31.02
2023-01-20T13:22:22.420Z,27.80
2023-01-20T13:24:54.427Z,27.10
2023-01-20T13:27:30.369Z,29.85
2023-01-20T13:29:59.727Z,27.90
2023-01-20T13:32:31.059Z,37.95
2023-01-20T13:34:59.097Z,29.58
2023-01-20T13:37:37.272Z,27.52
2023-01-20T13:40:25.411Z,25.77
2023-01-20T13:42:53.409Z,26.17
2023-01-20T13:45:25.769Z,29.40
2023-01-20T13:48:09.374Z,29.30
2023-01-20T13:50:38.483Z,45.38
2023-01-20T13:53:05.254Z,29.50
2023-01-20T13:55:41.323Z,32.42
2023-01-20T13:58:33.518Z,30.25
2023-01-20T14:01:13.695Z,40.15
2023-01-20T14:03:41.120Z,37.88
2023-01-20T14:06:13.416Z,48.30
2023-01-20T14:08:46.116Z,34.35
2023-01-20T14:11:13.003Z,28.15
2023-01-20T14:13:40.854Z,31.45
2023-01-20T14:16:38.267Z,35.33
2023-01-20T14:19:31.954Z,43.28
2023-01-20T14:22:15.295Z,34.78
2023-01-20T14:24:52.532Z,35.25
2023-01-20T14:27:24.705Z,26.27
2023-01-20T14:29:53.688Z,31.70
2023-01-20T14:32:33.791Z,27.88
2023-01-20T14:35:01.811Z,28.10
2023-01-20T14:37:31.228Z,32.15
2023-01-20T14:40:01.844Z,31.50
2023-01-20T14:42:29.818Z,38.15
2023-01-20T14:44:57.564Z,36.55
2023-01-20T14:47:26.290Z,39.25
2023-01-20T14:49:54.277Z,42.75
2023-01-20T14:52:31.399Z,40.88
2023-01-20T14:54:58.211Z,44.22
2023-01-20T14:57:40.659Z,55.58
2023-01-20T15:00:20.293Z,52.42
2023-01-20T15:03:11.304Z,51.83
2023-01-20T15:05:41.745Z,53.33
2023-01-20T15:08:32.904Z,51.17
2023-01-20T15:11:21.680Z,51.20
2023-01-20T15:14:00.967Z,55.20
2023-01-20T15:16:38.888Z,56.17
2023-01-20T15:19:18.488Z,50.08
2023-01-20T15:21:50.904Z,50.38
2023-01-20T15:24:32.692Z,48.95
2023-01-20T15:27:01.477Z,52.95
2023-01-20T15:29:33.714Z,43.28
2023-01-20T15:32:06.348Z,36.83
2023-01-20T15:34:33.453Z,36.53
2023-01-20T15:37:00.175Z,39.83
2023-01-20T15:39:31.628Z,41.95
2023-01-20T15:41:58.719Z,36.83
2023-01-20T15:44:26.450Z,41.78
2023-01-20T15:46:57.048Z,40.58
2023-01-20T15:49:25.189Z,43.22
2023-01-20T15:51:52.298Z,48.70
2023-01-20T15:54:19.091Z,43.20
2023-01-20T15:56:45.849Z,43.35
2023-01-20T15:59:18.213Z,41.60
2023-01-20T16:01:47.254Z,39.10
2023-01-20T16:04:14.195Z,40.45
2023-01-20T16:06:41.088Z,39.97
2023-01-20T16:09:25.563Z,35.55
2023-01-20T16:11:52.938Z,39.95
2023-01-20T16:14:19.740Z,35.60
2023-01-20T16:16:46.688Z,35.10
2023-01-20T16:19:14.720Z,40.05
2023-01-20T16:21:43.684Z,44.38
2023-01-20T16:24:12.245Z,40.25
2023-01-20T16:26:39.476Z,43.55
2023-01-20T16:29:06.267Z,38.58
2023-01-20T16:31:33.532Z,36.72
2023-01-20T16:34:00.576Z,35.08
2023-01-20T16:36:27.321Z,33.55
2023-01-20T16:38:54.407Z,32.45
2023-01-20T16:41:23.992Z,30.38
2023-01-20T16:43:52.155Z,33.78
2023-01-20T16:46:24.651Z,30.58
2023-01-20T16:48:52.041Z,28.08
2023-01-20T16:51:25.691Z,33.53
2023-01-20T16:53:54.367Z,32.15
2023-01-20T16:56:27.696Z,39.75
2023-01-20T16:58:57.738Z,30.67
2023-01-20T17:01:25.637Z,25.75
2023-01-20T17:03:54.566Z,27.65
2023-01-20T17:06:23.430Z,24.55
2023-01-20T17:08:53.013Z,26.25
2023-01-20T17:11:28.706Z,24.05
2023-01-20T17:13:56.596Z,24.63
2023-01-20T17:16:33.304Z,23.00
2023-01-20T17:19:01.252Z,28.02
2023-01-20T17:21:29.880Z,24.08
2023-01-20T17:23:59.811Z,28.83
2023-01-20T17:26:26.656Z,29.75
2023-01-20T17:28:58.700Z,24.95
2023-01-20T17:31:25.748Z,31.48
2023-01-20T17:33:52.772Z,32.33
2023-01-20T17:36:20.492Z,30.65
2023-01-20T17:38:47.427Z,33.25
2023-01-20T17:41:15.118Z,27.42
2023-01-20T17:43:48.278Z,25.77
2023-01-20T17:46:21.260Z,29.58
2023-01-20T17:48:48.858Z,27.67
2023-01-20T17:51:20.902Z,27.90
2023-01-20T17:53:48.860Z,36.35
2023-01-20T17:56:17.381Z,37.90
2023-01-20T17:58:45.398Z,41.90
2023-01-20T18:01:13.273Z,33.08
2023-01-20T18:03:42.897Z,31.60
2023-01-20T18:06:12.458Z,29.98
2023-01-20T18:08:39.621Z,36.35
2023-01-20T18:11:09.383Z,32.28
2023-01-20T18:13:36.931Z,36.53
2023-01-20T18:16:08.893Z,31.38
2023-01-20T18:18:35.791Z,32.15
2023-01-20T18:21:14.168Z,29.48
2023-01-20T18:23:41.967Z,32.55
2023-01-20T18:26:09.973Z,35.90
2023-01-20T18:28:37.670Z,37.28
2023-01-20T18:31:10.604Z,37.65
2023-01-20T18:33:55.722Z,37.55
2023-01-20T18:36:27.762Z,35.25
2023-01-20T18:38:57.037Z,41.35
2023-01-20T18:41:25.550Z,36.05
2023-01-20T18:43:52.483Z,38.55
2023-01-20T18:46:19.617Z,46.22
2023-01-20T18:48:47.634Z,38.85
2023-01-20T18:51:16.061Z,37.38
2023-01-20T18:53:44.595Z,47.28
2023-01-20T18:56:16.225Z,39.70
2023-01-20T18:58:47.539Z,38.97
2023-01-20T19:01:20.903Z,33.95
2023-01-20T19:03:48.816Z,42.17
2023-01-20T19:06:21.367Z,35.80
2023-01-20T19:08:48.493Z,33.92
2023-01-20T19:11:20.797Z,39.60
2023-01-20T19:13:49.907Z,40.70
2023-01-20T19:16:18.809Z,40.63
2023-01-20T19:18:51.601Z,41.88
2023-01-20T19:23:52.242Z,35.63
2023-01-20T19:26:20.232Z,44.17
2023-01-20T19:28:48.448Z,43.63
2023-01-20T19:31:18.256Z,44.22
2023-01-20T19:33:46.335Z,44.78
2023-01-20T19:36:15.743Z,47.70
2023-01-20T19:38:43.084Z,53.90
2023-01-20T19:41:15.993Z,45.65
2023-01-20T19:43:43.538Z,50.75
2023-01-20T19:46:12.993Z,47.85
2023-01-20T19:48:40.774Z,48.55
2023-01-20T19:51:13.022Z,49.75
2023-01-20T19:53:40.683Z,48.70
2023-01-20T19:56:13.177Z,50.40
2023-01-20T19:58:41.754Z,48.63
2023-01-20T20:01:09.379Z,47.17
2023-01-20T20:03:36.865Z,52.85
2023-01-20T20:06:05.110Z,48.53
2023-01-20T20:08:32.438Z,42.60
2023-01-20T20:10:59.382Z,50.65
2023-01-20T20:13:26.150Z,45.05
2023-01-20T20:16:01.111Z,47.80
2023-01-20T20:18:27.845Z,43.00
2023-01-20T20:20:54.607Z,43.05
2023-01-20T20:23:21.405Z,45.10
2023-01-20T20:25:57.959Z,47.55
2023-01-20T20:28:27.310Z,43.65
2023-01-20T20:30:57.402Z,45.92
2023-01-20T20:33:24.846Z,46.97
2023-01-20T20:35:51.931Z,48.20
2023-01-20T20:38:18.812Z,44.47
2023-01-20T20:40:45.896Z,47.95
2023-01-20T20:43:12.699Z,50.15
2023-01-20T20:45:39.605Z,49.22
2023-01-20T20:48:06.531Z,49.28
2023-01-20T20:50:33.980Z,54.17
2023-01-20T20:53:00.827Z,60.45
2023-01-20T20:55:29.279Z,62.40
2023-01-20T20:57:56.537Z,61.92
2023-01-20T21:00:29.486Z,67.70
2023-01-20T21:02:56.312Z,67.03
2023-01-20T21:05:23.086Z,65.70
2023-01-20T21:07:49.919Z,69.55
2023-01-20T21:10:17.595Z,68.03
2023-01-20T21:12:45.086Z,65.85
2023-01-20T21:15:12.071Z,71.13
2023-01-20T21:17:39.723Z,71.45
2023-01-20T21:20:07.906Z,79.20
2023-01-20T21:22:34.832Z,74.88
2023-01-20T21:25:01.616Z,79.50
2023-01-20T21:27:28.525Z,77.85
2023-01-20T21:29:55.274Z,80.35
2023-01-20T21:32:22.179Z,73.90
2023-01-20T21:34:48.994Z,78.88
2023-01-20T21:37:15.834Z,76.43
2023-01-20T21:39:42.632Z,83.72
2023-01-20T21:42:09.402Z,82.05
2023-01-20T21:44:36.522Z,73.57
2023-01-20T21:47:07.949Z,74.80
2023-01-20T21:49:53.469Z,79.35
2023-01-20T21:52:41.333Z,75.45
2023-01-20T21:55:18.900Z,73.80
2023-01-20T21:57:46.866Z,74.00
2023-01-20T22:00:15.287Z,79.43
2023-01-20T22:02:44.860Z,75.35
2023-01-20T22:05:12.316Z,73.80
2023-01-20T22:07:39.262Z,81.22
2023-01-20T22:10:07.669Z,78.53
2023-01-20T22:12:35.582Z,77.75
2023-01-20T22:15:03.431Z,75.85
2023-01-20T22:17:30.847Z,76.68
2023-01-20T22:19:57.703Z,76.13
2023-01-20T22:22:24.535Z,81.47
2023-01-20T22:24:51.871Z,71.55
2023-01-20T22:27:18.737Z,76.43
2023-01-20T22:29:46.165Z,70.55
2023-01-20T22:32:12.928Z,78.97
2023-01-20T22:34:39.752Z,72.03
2023-01-20T22:37:06.509Z,80.07
2023-01-20T22:39:33.610Z,71.20
2023-01-20T22:42:00.543Z,78.88
2023-01-20T22:44:27.374Z,73.93
2023-01-20T22:46:54.184Z,73.70
2023-01-20T22:49:21.101Z,75.40
2023-01-20T22:51:47.895Z,77.65
2023-01-20T22:54:14.691Z,85.03
2023-01-20T22:56:41.451Z,77.35
2023-01-20T22:59:10.647Z,77.95
2023-01-20T23:01:37.436Z,81.60
2023-01-20T23:04:05.905Z,70.95
2023-01-20T23:06:35.190Z,73.40
2023-01-20T23:09:06.363Z,71.13
2023-01-20T23:11:34.047Z,71.63
2023-01-20T23:14:00.854Z,72.30
2023-01-20T23:16:27.922Z,73.50
2023-01-20T23:18:54.750Z,68.82
2023-01-20T23:21:22.021Z,75.82
2023-01-20T23:23:54.777Z,69.03
2023-01-20T23:26:24.532Z,66.68
2023-01-20T23:28:52.731Z,77.68
2023-01-20T23:31:20.706Z,72.68
2023-01-20T23:33:47.671Z,68.25
2023-01-20T23:36:18.415Z,63.92
2023-01-20T23:38:46.043Z,64.22
2023-01-20T23:41:14.275Z,63.60
2023-01-20T23:43:41.525Z,67.30
2023-01-20T23:46:09.472Z,66.15
2023-01-20T23:48:36.430Z,69.32
2023-01-20T23:51:03.998Z,66.30
2023-01-20T23:53:32.600Z,63.20
2023-01-20T23:56:05.775Z,59.08
2023-01-20T23:58:33.074Z,62.25
